.
WxDataArchive / Data Records for 2009-12-04
2009-12-03 December 2009 2009-12-05

Data Records for Friday, 04 December 2009

Time	Temp	Chill	HIndex	Humid	Dewpt	 Wind 	HiWind	WindDir	Rain 	Barom 
-----	----	-----	------	-----	-----	------	------	-------	-----	----- 
00:00	29.8	29.8	29.8	71	21.6	2	4	248	0.00	30.098 
00:05	29.8	29.8	29.8	71	21.6	2	4	248	0.00	30.098 
00:10	29.8	29.8	29.8	72	21.9	2	5	248	0.00	30.098 
00:15	29.5	29.5	29.5	72	21.6	1	6	248	0.00	30.098 
00:20	29.4	29.4	29.4	72	21.5	1	5	248	0.00	30.098 
00:25	29.4	29.4	29.4	72	21.5	2	4	248	0.00	30.098 
00:30	29.4	29.4	29.4	73	21.8	2	7	248	0.00	30.102 
00:35	29.3	29.3	29.3	73	21.7	2	7	248	0.00	30.102 
00:40	29.1	29.1	29.1	73	21.5	1	5	248	0.00	30.102 
00:45	29.1	29.1	29.1	73	21.5	1	7	270	0.00	30.099 
00:50	29.0	29.0	29.0	73	21.4	1	4	248	0.00	30.099 
00:55	28.8	28.8	28.8	74	21.6	2	4	248	0.00	30.099 
01:00	28.8	28.8	28.8	74	21.6	2	6	248	0.00	30.100 
01:05	28.8	28.8	28.8	74	21.6	1	5	248	0.00	30.100 
01:10	28.7	28.7	28.7	73	21.2	2	4	248	0.00	30.100 
01:15	28.7	28.7	28.7	73	21.2	2	5	248	0.00	30.102 
01:20	28.7	28.7	28.7	73	21.2	2	6	248	0.00	30.102 
01:25	28.5	28.5	28.5	72	20.6	2	5	248	0.00	30.102 
01:30	28.4	28.4	28.4	72	20.5	1	9	248	0.00	30.103 
01:35	28.4	28.4	28.4	72	20.5	3	9	248	0.00	30.103 
01:40	28.2	28.2	28.2	72	20.4	1	3	248	0.00	30.103 
01:45	28.1	28.1	28.1	72	20.3	2	6	248	0.00	30.107 
01:50	28.1	28.1	28.1	72	20.3	2	6	270	0.00	30.107 
01:55	27.9	27.9	27.9	72	20.1	1	4	248	0.00	30.107 
02:00	27.8	27.8	27.8	72	20.0	2	6	248	0.00	30.111 
02:05	27.6	27.6	27.6	72	19.8	2	4	225	0.00	30.111 
02:10	27.6	27.6	27.6	72	19.8	1	5	248	0.00	30.111 
02:15	27.5	27.5	27.5	72	19.7	2	7	248	0.00	30.114 
02:20	27.5	27.5	27.5	71	19.4	1	5	248	0.00	30.114 
02:25	27.3	27.3	27.3	72	19.5	1	6	248	0.00	30.114 
02:30	27.2	27.2	27.2	71	19.1	2	5	270	0.00	30.119 
02:35	27.0	27.0	27.0	71	18.9	2	5	248	0.00	30.119 
02:40	27.0	27.0	27.0	71	18.9	2	9	248	0.00	30.119 
02:45	27.0	27.0	27.0	72	19.2	2	7	248	0.00	30.128 
02:50	26.9	26.9	26.9	71	18.8	3	11	248	0.00	30.128 
02:55	26.7	26.7	26.7	72	18.9	1	5	292	0.00	30.128 
03:00	26.6	26.6	26.6	72	18.8	2	6	270	0.00	30.131 
03:05	26.6	26.6	26.6	73	19.1	2	6	225	0.00	30.131 
03:10	26.4	26.4	26.4	73	18.9	2	6	248	0.00	30.131 
03:15	26.4	26.4	26.4	73	18.9	2	4	225	0.00	30.132 
03:20	26.3	26.3	26.3	74	19.2	2	5	248	0.00	30.132 
03:25	26.1	26.1	26.1	74	19.0	2	6	225	0.00	30.132 
03:30	26.0	26.0	26.0	74	18.9	2	6	225	0.00	30.134 
03:35	26.0	26.0	26.0	74	18.9	2	6	248	0.00	30.134 
03:40	25.8	25.8	25.8	74	18.7	1	4	248	0.00	30.134 
03:45	25.7	25.7	25.7	75	18.9	1	3	248	0.00	30.133 
03:50	25.6	25.6	25.6	75	18.8	2	5	248	0.00	30.133 
03:55	25.6	25.6	25.6	74	18.5	1	5	248	0.00	30.133 
04:00	25.4	25.4	25.4	74	18.3	1	5	248	0.00	30.135 
04:05	25.3	25.3	25.3	73	17.9	2	5	248	0.00	30.135 
04:10	25.3	25.3	25.3	73	17.9	1	3	248	0.00	30.135 
04:15	25.1	25.1	25.1	73	17.7	2	6	248	0.00	30.137 
04:20	25.1	25.1	25.1	73	17.7	2	6	248	0.00	30.137 
04:25	25.1	25.1	25.1	73	17.7	2	7	248	0.00	30.137 
04:30	25.0	25.0	25.0	73	17.6	2	7	248	0.00	30.138 
04:35	25.0	25.0	25.0	73	17.6	2	7	248	0.00	30.138 
04:40	24.8	24.8	24.8	74	17.7	1	5	248	0.00	30.138 
04:45	24.7	24.7	24.7	74	17.6	2	5	225	0.00	30.141 
04:50	24.7	24.7	24.7	74	17.6	2	6	248	0.00	30.141 
04:55	24.5	24.5	24.5	74	17.4	1	5	248	0.00	30.141 
05:00	24.5	24.5	24.5	74	17.4	2	6	248	0.00	30.145 
05:05	24.4	24.4	24.4	74	17.3	2	7	248	0.00	30.145 
05:10	24.4	24.4	24.4	74	17.3	2	5	248	0.00	30.145 
05:15	24.4	24.4	24.4	75	17.6	2	5	248	0.00	30.151 
05:20	24.2	24.2	24.2	75	17.4	2	7	248	0.00	30.151 
05:25	24.2	24.2	24.2	75	17.4	2	7	248	0.00	30.151 
05:30	24.2	24.2	24.2	74	17.1	2	5	248	0.00	30.152 
05:35	24.1	24.1	24.1	74	17.0	2	5	248	0.00	30.152 
05:40	24.1	24.1	24.1	74	17.0	2	7	225	0.00	30.152 
05:45	24.1	24.1	24.1	74	17.0	2	6	248	0.00	30.153 
05:50	24.1	24.1	24.1	74	17.0	2	6	248	0.00	30.153 
05:55	23.9	23.9	23.9	74	16.8	1	4	248	0.00	30.153 
06:00	23.9	23.9	23.9	74	16.8	2	6	248	0.00	30.154 
06:05	23.9	23.9	23.9	74	16.8	1	5	248	0.00	30.154 
06:10	23.8	23.8	23.8	74	16.7	1	3	248	0.00	30.154 
06:15	23.8	23.8	23.8	74	16.7	1	3	248	0.00	30.158 
06:20	23.8	23.8	23.8	74	16.7	2	5	248	0.00	30.158 
06:25	23.8	23.8	23.8	74	16.7	2	5	225	0.00	30.158 
06:30	23.8	23.8	23.8	74	16.7	2	5	270	0.00	30.160 
06:35	23.8	23.8	23.8	75	17.1	2	5	248	0.00	30.160 
06:40	23.6	23.6	23.6	75	16.9	2	5	248	0.00	30.160 
06:45	23.6	23.6	23.6	75	16.9	1	5	248	0.00	30.166 
06:50	23.6	23.6	23.6	75	16.9	1	4	248	0.00	30.166 
06:55	23.5	23.5	23.5	76	17.1	2	5	248	0.00	30.166 
07:00	23.5	23.5	23.5	76	17.1	1	4	248	0.00	30.169 
07:05	23.5	23.5	23.5	76	17.1	1	6	248	0.00	30.169 
07:10	23.5	23.5	23.5	76	17.1	1	4	248	0.00	30.169 
07:15	23.3	23.3	23.3	76	16.9	1	4	248	0.00	30.175 
07:20	23.3	23.3	23.3	77	17.2	1	4	248	0.00	30.175 
07:25	23.3	23.3	23.3	77	17.2	1	5	248	0.00	30.175 
07:30	23.2	23.2	23.2	77	17.1	1	4	248	0.00	30.175 
07:35	23.2	23.2	23.2	77	17.1	1	5	248	0.00	30.175 
07:40	23.2	23.2	23.2	78	17.4	1	3	248	0.00	30.175 
07:45	23.2	23.2	23.2	78	17.4	2	5	248	0.00	30.180 
07:50	23.2	23.2	23.2	78	17.4	2	5	270	0.00	30.180 
07:55	23.2	23.2	23.2	78	17.4	2	5	248	0.00	30.180 
08:00	23.2	23.2	23.2	78	17.4	1	3	248	0.00	30.183 
08:05	23.2	23.2	23.2	78	17.4	1	5	248	0.00	30.183 
08:10	23.2	23.2	23.2	79	17.7	1	5	248	0.00	30.183 
08:15	23.2	23.2	23.2	79	17.7	1	6	248	0.00	30.187 
08:20	23.3	23.3	23.3	79	17.8	1	3	225	0.00	30.187 
08:25	23.3	23.3	23.3	79	17.8	2	6	248	0.00	30.187 
08:30	23.5	23.5	23.5	79	18.0	2	6	248	0.00	30.189 
08:35	23.6	23.6	23.6	78	17.8	2	9	248	0.00	30.189 
08:40	23.8	23.8	23.8	78	18.0	2	6	270	0.00	30.189 
08:45	23.9	23.9	23.9	77	17.8	2	9	248	0.00	30.194 
08:50	23.9	23.9	23.9	77	17.8	3	6	248	0.00	30.194 
08:55	24.1	24.1	24.1	76	17.7	2	7	248	0.00	30.194 
09:00	24.2	24.2	24.2	75	17.4	3	9	270	0.00	30.200 
09:05	24.4	24.4	24.4	73	17.0	3	9	270	0.00	30.200 
09:10	24.5	24.5	24.5	73	17.1	3	10	270	0.00	30.200 
09:15	24.7	24.7	24.7	72	17.0	3	8	248	0.00	30.203 
09:20	24.8	24.8	24.8	71	16.8	3	9	270	0.00	30.203 
09:25	25.0	25.0	25.0	70	16.6	3	10	248	0.00	30.203 
09:30	25.0	25.0	25.0	69	16.3	3	10	270	0.00	30.206 
09:35	25.1	20.1	25.1	69	16.4	4	13	270	0.00	30.206 
09:40	25.1	25.1	25.1	69	16.4	3	9	270	0.00	30.206 
09:45	25.1	20.1	25.1	69	16.4	4	9	270	0.00	30.215 
09:50	25.1	20.1	25.1	69	16.4	4	13	248	0.00	30.215 
09:55	25.1	19.0	25.1	69	16.4	5	12	248	0.00	30.215 
10:00	25.1	20.1	25.1	69	16.4	4	10	270	0.00	30.218 
10:05	25.4	20.5	25.4	69	16.7	4	9	270	0.00	30.218 
10:10	25.7	25.7	25.7	68	16.6	2	4	248	0.00	30.218 
10:15	25.6	20.7	25.6	67	16.2	4	14	248	0.00	30.222 
10:20	25.4	25.4	25.4	68	16.3	3	10	248	0.00	30.222 
10:25	25.3	19.2	25.3	67	15.9	5	12	248	0.00	30.222 
10:30	25.3	25.3	25.3	68	16.2	3	9	248	0.00	30.226 
10:35	25.4	20.5	25.4	68	16.3	4	10	270	0.00	30.226 
10:40	25.7	20.8	25.7	67	16.3	4	14	270	0.00	30.226 
10:45	26.0	21.1	26.0	66	16.2	4	12	248	0.00	30.228 
10:50	26.3	21.5	26.3	66	16.5	4	11	292	0.00	30.228 
10:55	26.6	26.6	26.6	66	16.8	3	8	248	0.00	30.228 
11:00	26.6	26.6	26.6	65	16.4	3	11	270	0.00	30.228 
11:05	26.3	21.5	26.3	65	16.2	4	9	248	0.00	30.228 
11:10	26.3	26.3	26.3	64	15.8	3	10	248	0.00	30.228 
11:15	26.4	21.6	26.4	63	15.5	4	9	270	0.00	30.231 
11:20	27.0	27.0	27.0	65	16.8	2	5	270	0.00	30.231 
11:25	27.5	22.9	27.5	63	16.6	4	12	270	0.00	30.231 
11:30	28.2	28.2	28.2	63	17.2	2	7	225	0.00	30.222 
11:35	28.8	28.8	28.8	61	17.1	2	7	270	0.00	30.222 
11:40	29.1	29.1	29.1	60	17.0	3	9	248	0.00	30.222 
11:45	29.0	29.0	29.0	60	16.9	3	7	270	0.00	30.219 
11:50	29.3	29.3	29.3	61	17.5	3	6	270	0.00	30.219 
11:55	29.5	29.5	29.5	59	17.0	3	6	248	0.00	30.219 
12:00	29.1	29.1	29.1	58	16.2	3	7	270	0.00	30.216 
12:05	29.0	29.0	29.0	59	16.5	3	5	248	0.00	30.216 
12:10	29.1	29.1	29.1	59	16.6	3	6	270	0.00	30.216 
12:15	29.1	29.1	29.1	58	16.2	3	6	270	0.00	30.209 
12:20	28.8	28.8	28.8	58	15.9	3	7	270	0.00	30.209 
12:25	28.5	28.5	28.5	59	16.0	3	7	248	0.00	30.209 
12:30	28.7	28.7	28.7	59	16.2	3	6	270	0.00	30.206 
12:35	29.0	29.0	29.0	58	16.1	3	5	248	0.00	30.206 
12:40	29.3	29.3	29.3	59	16.8	2	5	270	0.00	30.206 
12:45	29.3	29.3	29.3	60	17.2	2	6	270	0.00	30.203 
12:50	29.4	29.4	29.4	59	16.9	3	5	270	0.00	30.203 
12:55	29.4	29.4	29.4	59	16.9	2	6	270	0.00	30.203 
13:00	29.5	29.5	29.5	58	16.6	3	9	270	0.00	30.201 
13:05	29.7	29.7	29.7	56	15.9	3	10	270	0.00	30.201 
13:10	30.0	30.0	30.0	56	16.2	3	7	248	0.00	30.201 
13:15	30.3	26.1	30.3	54	15.7	4	9	248	0.00	30.200 
13:20	30.6	30.6	30.6	57	17.2	3	6	270	0.00	30.200 
13:25	30.6	30.6	30.6	54	16.0	3	7	248	0.00	30.200 
13:30	30.7	30.7	30.7	56	16.9	2	4	248	0.00	30.197 
13:35	30.9	30.9	30.9	56	17.1	3	6	270	0.00	30.197 
13:40	30.6	30.6	30.6	56	16.8	3	7	248	0.00	30.197 
13:45	30.4	30.4	30.4	56	16.6	3	6	270	0.00	30.193 
13:50	30.3	30.3	30.3	54	15.7	3	7	270	0.00	30.193 
13:55	30.0	30.0	30.0	56	16.2	3	7	270	0.00	30.193 
14:00	30.0	25.8	30.0	54	15.4	4	13	225	0.00	30.191 
14:05	29.7	29.7	29.7	54	15.1	3	10	270	0.00	30.191 
14:10	29.8	25.5	29.8	55	15.6	4	10	248	0.00	30.191 
14:15	29.8	29.8	29.8	55	15.6	3	7	270	0.00	30.190 
14:20	30.1	30.1	30.1	55	15.9	3	6	248	0.00	30.190 
14:25	30.3	30.3	30.3	54	15.7	3	10	248	0.00	30.190 
14:30	30.1	30.1	30.1	55	15.9	3	9	248	0.00	30.191 
14:35	30.1	30.1	30.1	54	15.5	3	10	270	0.00	30.191 
14:40	30.3	30.3	30.3	55	16.1	2	4	270	0.00	30.191 
14:45	30.3	30.3	30.3	54	15.7	3	7	270	0.00	30.193 
14:50	29.7	25.4	29.7	55	15.5	4	11	248	0.00	30.193 
14:55	29.4	29.4	29.4	55	15.3	3	7	248	0.00	30.193 
15:00	29.3	29.3	29.3	54	14.7	3	9	248	0.00	30.198 
15:05	29.4	29.4	29.4	55	15.3	2	5	248	0.00	30.198 
15:10	29.4	29.4	29.4	54	14.8	3	9	248	0.00	30.198 
15:15	29.3	29.3	29.3	54	14.7	3	10	248	0.00	30.205 
15:20	29.1	29.1	29.1	54	14.6	3	9	248	0.00	30.205 
15:25	29.1	29.1	29.1	54	14.6	2	7	248	0.00	30.205 
15:30	29.3	29.3	29.3	55	15.2	3	9	248	0.00	30.208 
15:35	29.3	29.3	29.3	55	15.2	3	10	270	0.00	30.208 
15:40	29.1	29.1	29.1	55	15.0	3	10	248	0.00	30.208 
15:45	29.0	29.0	29.0	56	15.3	3	10	225	0.00	30.220 
15:50	29.0	29.0	29.0	56	15.3	2	7	248	0.00	30.220 
15:55	28.7	28.7	28.7	56	15.0	3	8	248	0.00	30.220 
16:00	28.5	28.5	28.5	57	15.2	3	8	248	0.00	30.228 
16:05	28.4	28.4	28.4	58	15.5	3	5	248	0.00	30.228 
16:10	28.1	28.1	28.1	58	15.3	3	7	248	0.00	30.228 
16:15	27.8	27.8	27.8	59	15.4	2	6	248	0.00	30.233 
16:20	27.5	27.5	27.5	59	15.1	2	6	270	0.00	30.233 
16:25	27.2	27.2	27.2	59	14.8	3	7	248	0.00	30.233 
16:30	26.9	26.9	26.9	61	15.3	1	4	248	0.00	30.225 
16:35	26.7	26.7	26.7	61	15.1	2	5	248	0.00	30.225 
16:40	26.6	26.6	26.6	62	15.4	1	3	248	0.00	30.225 
16:45	26.6	26.6	26.6	62	15.4	2	7	248	0.00	30.232 
16:50	26.4	26.4	26.4	62	15.2	1	5	248	0.00	30.232 
16:55	26.4	26.4	26.4	63	15.5	2	6	248	0.00	30.232 
17:00	26.3	26.3	26.3	62	15.1	2	7	248	0.00	30.234 
17:05	26.3	26.3	26.3	62	15.1	1	6	248	0.00	30.234 
17:10	26.3	26.3	26.3	62	15.1	1	5	248	0.00	30.234 
17:15	26.1	26.1	26.1	62	14.9	1	3	248	0.00	30.239 
17:20	26.1	26.1	26.1	62	14.9	2	6	225	0.00	30.239 
17:25	26.0	26.0	26.0	63	15.2	1	5	225	0.00	30.239 
17:30	26.0	26.0	26.0	62	14.8	2	6	248	0.00	30.241 
17:35	26.0	26.0	26.0	62	14.8	2	6	248	0.00	30.241 
17:40	26.0	26.0	26.0	62	14.8	2	6	225	0.00	30.241 
17:45	26.1	26.1	26.1	62	14.9	1	3	248	0.00	30.242 
17:50	26.1	26.1	26.1	63	15.3	1	3	248	0.00	30.242 
17:55	26.1	26.1	26.1	63	15.3	1	5	248	0.00	30.242 
18:00	26.1	26.1	26.1	62	14.9	2	10	270	0.00	30.240 
18:05	26.1	26.1	26.1	62	14.9	2	5	248	0.00	30.240 
18:10	26.1	26.1	26.1	62	14.9	2	7	248	0.00	30.240 
18:15	26.1	26.1	26.1	62	14.9	1	6	248	0.00	30.242 
18:20	26.1	26.1	26.1	62	14.9	1	4	248	0.00	30.242 
18:25	26.1	26.1	26.1	62	14.9	1	3	248	0.00	30.242 
18:30	26.1	26.1	26.1	62	14.9	1	3	225	0.00	30.237 
18:35	26.1	26.1	26.1	62	14.9	1	5	248	0.00	30.237 
18:40	26.1	26.1	26.1	62	14.9	2	5	225	0.00	30.237 
18:45	26.1	26.1	26.1	62	14.9	1	3	248	0.00	30.237 
18:50	26.1	26.1	26.1	62	14.9	1	4	248	0.00	30.237 
18:55	26.0	26.0	26.0	62	14.8	2	5	248	0.00	30.237 
19:00	26.0	26.0	26.0	62	14.8	1	5	248	0.00	30.229 
19:05	26.0	26.0	26.0	63	15.2	1	4	248	0.00	30.229 
19:10	26.0	26.0	26.0	64	15.5	1	5	248	0.00	30.229 
19:15	25.8	25.8	25.8	64	15.3	2	5	248	0.00	30.231 
19:20	25.8	25.8	25.8	64	15.3	1	5	248	0.00	30.231 
19:25	25.8	25.8	25.8	63	15.0	2	6	292	0.00	30.231 
19:30	25.7	25.7	25.7	63	14.9	1	4	248	0.00	30.233 
19:35	25.6	25.6	25.6	63	14.8	1	6	248	0.00	30.233 
19:40	25.6	25.6	25.6	63	14.8	2	4	248	0.00	30.233 
19:45	25.6	25.6	25.6	64	15.1	1	5	248	0.00	30.237 
19:50	25.4	25.4	25.4	63	14.6	2	6	248	0.00	30.237 
19:55	25.4	25.4	25.4	63	14.6	2	6	248	0.00	30.237 
20:00	25.3	25.3	25.3	63	14.5	2	5	248	0.00	30.241 
20:05	25.3	25.3	25.3	63	14.5	1	3	225	0.00	30.241 
20:10	25.1	25.1	25.1	63	14.3	2	7	225	0.00	30.241 
20:15	25.1	25.1	25.1	63	14.3	1	4	248	0.00	30.240 
20:20	25.1	25.1	25.1	63	14.3	2	6	248	0.00	30.240 
20:25	25.1	25.1	25.1	63	14.3	2	6	248	0.00	30.240 
20:30	25.0	25.0	25.0	63	14.2	2	6	248	0.00	30.238 
20:35	24.8	24.8	24.8	62	13.7	2	5	270	0.00	30.238 
20:40	24.7	24.7	24.7	63	13.9	1	3	248	0.00	30.238 
20:45	24.7	24.7	24.7	63	13.9	1	5	225	0.00	30.232 
20:50	24.5	24.5	24.5	63	13.7	2	6	270	0.00	30.232 
20:55	24.5	24.5	24.5	64	14.1	1	4	225	0.00	30.232 
21:00	24.5	24.5	24.5	64	14.1	2	6	270	0.00	30.231 
21:05	24.5	24.5	24.5	64	14.1	1	4	248	0.00	30.231 
21:10	24.4	24.4	24.4	64	14.0	1	4	248	0.00	30.231 
21:15	24.4	24.4	24.4	64	14.0	0	1	225	0.00	30.230 
21:20	24.4	24.4	24.4	65	14.3	1	4	225	0.00	30.230 
21:25	24.5	24.5	24.5	65	14.4	1	3	248	0.00	30.230 
21:30	24.5	24.5	24.5	65	14.4	0	2	248	0.00	30.228 
21:35	24.7	24.7	24.7	65	14.6	0	3	248	0.00	30.228 
21:40	24.7	24.7	24.7	64	14.3	1	2	248	0.00	30.228 
21:45	24.5	24.5	24.5	64	14.1	1	3	292	0.00	30.234 
21:50	24.5	24.5	24.5	64	14.1	0	3	292	0.00	30.234 
21:55	24.7	24.7	24.7	64	14.3	1	5	225	0.00	30.234 
22:00	24.7	24.7	24.7	64	14.3	1	3	248	0.00	30.240 
22:05	24.7	24.7	24.7	64	14.3	1	3	225	0.00	30.240 
22:10	24.7	24.7	24.7	64	14.3	1	6	225	0.00	30.240 
22:15	24.7	24.7	24.7	64	14.3	1	4	248	0.00	30.237 
22:20	24.7	24.7	24.7	64	14.3	0	1	248	0.00	30.237 
22:25	24.7	24.7	24.7	65	14.6	0	2	248	0.00	30.237 
22:30	24.7	24.7	24.7	65	14.6	0	5	248	0.00	30.230 
22:35	24.7	24.7	24.7	64	14.3	0	3	248	0.00	30.230 
22:40	24.7	24.7	24.7	64	14.3	1	5	248	0.00	30.230 
22:45	24.7	24.7	24.7	64	14.3	1	5	248	0.00	30.229 
22:50	24.7	24.7	24.7	64	14.3	2	6	248	0.00	30.229 
22:55	24.5	24.5	24.5	63	13.7	1	5	270	0.00	30.229 
23:00	24.5	24.5	24.5	64	14.1	1	2	248	0.00	30.232 
23:05	24.7	24.7	24.7	64	14.3	1	5	248	0.00	30.232 
23:10	24.7	24.7	24.7	65	14.6	0	3	248	0.00	30.232 
23:15	24.5	24.5	24.5	64	14.1	1	3	248	0.00	30.237 
23:20	24.5	24.5	24.5	64	14.1	0	2	248	0.00	30.237 
23:25	24.5	24.5	24.5	64	14.1	0	1	0	0.00	30.237 
23:30	24.5	24.5	24.5	64	14.1	0	4	0	0.00	30.239 
23:35	24.5	24.5	24.5	64	14.1	1	4	338	0.00	30.239 
23:40	24.5	24.5	24.5	64	14.1	0	2	338	0.00	30.239 
23:45	24.4	24.4	24.4	64	14.0	0	2	315	0.00	30.242 
23:50	24.4	24.4	24.4	64	14.0	1	2	315	0.00	30.242 
23:55	24.4	24.4	24.4	64	14.0	0	2	315	0.00	30.242 

CoCoRaHS
IN-AL-39
A2 Web Hosting
Creative Commons License
GoDaddy
search engine by freefind advanced

loaded 2018-11-15 03:23:11 • last modified 2010-11-18 10:43:29
Privacy PolicyDisclaimer
• wx.awcolley.com is powered by PmWiki v.2002016 •
• all content (unless otherwise noted) © 2018 A W Colley